Tampa, Florida
Traffic Map
Current Weather Conditions
Tampa, Florida
Few Clouds
Few Clouds
67°
Feels Like: 67°
Wind Chill: 67° Ceiling: Unl
Heat Index: 67° Visibility: 10mi
Dew Point: 56° Wind: 10mph
Humidity: 68% Direction: 50° (NE)
Pressure: 30.13in Gusts: 23mph
Raw Report DataKTPA 170153Z 05009G20KT 10SM FEW047 19/13 A3013 RMK AO2 SLP201 T01940133
Traffic Incident Summary
Active as of:
Severity:
Category:
InformationThere was an issue retrieving the traffic information for this location. Please try a different location or try again shortly.
Advertisements
At Last! Intellicast now available for iPhone and Android